Time;durP1;ratioP1;P1;durP2;ratioP2;P2;SDS_P1;SDS_P2;PMS_P1;PMS_P2;Temp;Humidity;BMP_temperature;BMP_pressure;BME280_temperature;BME280_humidity;BME280_pressure;Samples;Min_cycle;Max_cycle;Signal;HPM_P1;HPM_P2
2023/02/24 00:01:23;;;;;;;27.02;11.40;;;5.40;85.80;;;;;;5052605;28;20032;-74
2023/02/24 00:03:59;;;;;;;25.65;11.02;;;5.40;86.00;;;;;;5052621;28;20021;-75
2023/02/24 00:06:34;;;;;;;22.63;9.75;;;5.40;85.90;;;;;;5052660;28;20036;-74
2023/02/24 00:09:00;;;;;;;;;;;5.40;86.40;;;;;;5053022;28;20032;-74
2023/02/24 00:11:26;;;;;;;24.77;10.75;;;5.40;86.80;;;;;;5052524;28;19905;-74
2023/02/24 00:13:52;;;;;;;19.63;10.50;;;5.40;87.00;;;;;;5052466;28;20021;-75
2023/02/24 00:16:18;;;;;;;19.00;9.65;;;5.40;87.20;;;;;;5052384;28;20028;-74
2023/02/24 00:18:44;;;;;;;23.23;10.88;;;5.50;87.20;;;;;;5052611;28;20481;-73
2023/02/24 00:21:14;;;;;;;22.30;10.45;;;5.40;87.00;;;;;;5052462;28;20027;-76
2023/02/24 00:23:41;;;;;;;25.20;10.75;;;5.40;86.80;;;;;;5052406;28;20053;-73
2023/02/24 00:26:08;;;;;;;17.13;9.88;;;5.50;86.80;;;;;;5052439;28;20061;-73
2023/02/24 00:28:35;;;;;;;21.65;10.70;;;5.50;86.50;;;;;;5052384;28;20420;-75
2023/02/24 00:31:09;;;;;;;20.45;9.65;;;5.60;86.20;;;;;;5052311;28;20025;-74
2023/02/24 00:33:36;;;;;;;19.23;9.77;;;5.70;86.50;;;;;;5052185;28;20049;-74
2023/02/24 00:36:10;;;;;;;18.40;10.13;;;5.70;86.30;;;;;;5052279;28;20013;-73
2023/02/24 00:38:37;;;;;;;24.05;11.02;;;5.70;86.00;;;;;;5052233;28;20033;-75
2023/02/24 00:41:11;;;;;;;26.63;10.25;;;5.70;85.80;;;;;;5052241;28;20032;-73
2023/02/24 00:43:37;;;;;;;18.98;10.07;;;5.60;86.00;;;;;;5052267;28;20024;-73
2023/02/24 00:46:09;;;;;;;15.98;9.57;;;5.60;86.20;;;;;;5052246;28;20067;-73
2023/02/24 00:48:39;;;;;;;14.52;7.38;;;5.50;86.30;;;;;;5055863;28;20025;-75
2023/02/24 00:51:12;;;;;;;14.70;7.95;;;5.40;87.00;;;;;;5055749;28;20052;-73
2023/02/24 00:53:39;;;;;;;21.52;9.35;;;5.50;86.90;;;;;;5055779;28;20374;-74
2023/02/24 00:56:06;;;;;;;16.67;10.00;;;5.60;86.90;;;;;;5055629;28;20029;-74
2023/02/24 00:58:34;;;;;;;14.65;8.82;;;5.60;87.30;;;;;;5056053;28;20036;-73
2023/02/24 01:01:01;;;;;;;19.58;10.48;;;5.60;87.20;;;;;;5055868;28;20025;-73
2023/02/24 01:03:28;;;;;;;18.70;9.70;;;5.70;86.80;;;;;;5055490;28;20074;-72
2023/02/24 01:05:53;;;;;;;21.88;9.65;;;5.70;86.40;;;;;;5055117;28;20017;-73
2023/02/24 01:08:20;;;;;;;20.60;9.52;;;5.80;85.90;;;;;;5055481;28;20024;-73
2023/02/24 01:12:00;;;;;;;19.25;9.45;;;5.80;85.80;;;;;;5055431;28;20414;-73
2023/02/24 01:13:40;;;;;;;19.67;9.35;;;5.90;85.70;;;;;;5055222;28;20025;-72
2023/02/24 01:16:05;;;;;;;20.88;10.38;;;5.90;85.60;;;;;;5037336;28;20083;-74
2023/02/24 01:18:31;;;;;;;23.45;10.27;;;5.80;85.10;;;;;;5055230;28;20029;-74
2023/02/24 01:20:57;;;;;;;21.55;9.88;;;5.80;85.50;;;;;;5055192;28;20021;-73
2023/02/24 01:23:24;;;;;;;18.52;9.50;;;5.80;85.90;;;;;;5055143;28;20035;-73
2023/02/24 01:25:50;;;;;;;19.27;9.90;;;5.80;86.10;;;;;;5055229;28;20083;-75
2023/02/24 01:28:16;;;;;;;16.73;9.35;;;5.90;86.30;;;;;;5054283;28;20020;-73
2023/02/24 01:30:42;;;;;;;20.73;9.55;;;5.90;87.00;;;;;;5054470;28;20086;-75
2023/02/24 01:33:13;;;;;;;18.65;9.68;;;6.00;86.00;;;;;;5054986;28;20466;-74
2023/02/24 01:35:39;;;;;;;19.73;9.50;;;5.90;85.90;;;;;;5054799;28;20048;-73
2023/02/24 01:38:05;;;;;;;21.17;9.63;;;6.00;86.10;;;;;;5054731;28;20037;-75
2023/02/24 01:40:31;;;;;;;18.00;9.68;;;6.00;86.10;;;;;;5054882;28;20025;-76
2023/02/24 01:42:56;;;;;;;16.02;9.65;;;6.00;86.00;;;;;;5054862;28;20029;-73
2023/02/24 01:45:25;;;;;;;21.63;9.68;;;6.00;85.70;;;;;;5054814;28;20488;-74
2023/02/24 01:47:51;;;;;;;23.98;10.73;;;6.00;86.00;;;;;;5054831;28;20115;-75
2023/02/24 01:50:21;;;;;;;16.63;9.00;;;6.00;85.90;;;;;;5054606;28;20013;-74
2023/02/24 01:52:51;;;;;;;25.10;9.73;;;6.00;85.80;;;;;;5054356;28;20021;-74
2023/02/24 01:55:23;;;;;;;17.67;9.02;;;6.00;86.00;;;;;;5054436;28;20017;-74
2023/02/24 01:57:52;;;;;;;17.00;9.60;;;6.10;86.20;;;;;;5054495;28;20489;-74
2023/02/24 02:00:31;;;;;;;23.70;10.13;;;6.10;86.10;;;;;;5054351;28;20577;-74
2023/02/24 02:03:02;;;;;;;17.80;8.95;;;6.20;86.00;;;;;;5054450;28;20021;-74
2023/02/24 02:05:28;;;;;;;18.05;8.90;;;6.30;86.10;;;;;;5054482;28;20350;-74
2023/02/24 02:07:54;;;;;;;17.02;8.32;;;6.30;86.10;;;;;;5054349;28;20056;-74
2023/02/24 02:10:20;;;;;;;16.75;9.23;;;6.30;85.90;;;;;;5054299;28;20043;-74
2023/02/24 02:12:46;;;;;;;16.73;9.35;;;6.30;85.10;;;;;;5054342;28;20033;-75
2023/02/24 02:15:15;;;;;;;18.52;9.65;;;6.20;84.60;;;;;;5053326;28;20448;-74
2023/02/24 02:18:03;;;;;;;18.75;8.40;;;6.20;84.80;;;;;;5053944;28;20045;-74
2023/02/24 02:21:17;;;;;;;18.20;9.10;;;6.10;84.80;;;;;;5054013;28;20377;-74
2023/02/24 02:24:11;;;;;;;14.18;8.77;;;6.10;85.00;;;;;;4992697;28;20491;-74
2023/02/24 02:26:40;;;;;;;16.85;9.32;;;6.20;85.00;;;;;;5053562;28;20028;-74
2023/02/24 02:29:24;;;;;;;14.18;8.10;;;6.20;84.80;;;;;;5053941;28;20036;-74
2023/02/24 02:32:07;;;;;;;15.68;8.27;;;6.20;84.30;;;;;;5053929;28;20094;-74
2023/02/24 02:35:07;;;;;;;18.08;8.20;;;6.20;85.40;;;;;;5053782;28;20401;-74
2023/02/24 02:37:47;;;;;;;17.63;8.25;;;6.20;84.40;;;;;;5053471;28;20025;-75
2023/02/24 02:40:25;;;;;;;20.15;7.32;;;6.20;84.20;;;;;;5053843;28;20049;-74
2023/02/24 02:43:06;;;;;;;16.75;8.05;;;6.20;84.10;;;;;;5053723;28;20504;-74
2023/02/24 02:45:54;;;;;;;15.00;7.15;;;6.20;84.20;;;;;;5053600;28;20465;-74
2023/02/24 02:48:33;;;;;;;20.38;7.90;;;6.20;84.20;;;;;;5053435;28;20021;-74
2023/02/24 02:51:11;;;;;;;19.13;7.68;;;6.20;84.20;;;;;;5053639;28;20020;-74
2023/02/24 02:53:59;;;;;;;16.40;8.02;;;6.20;84.00;;;;;;5053304;28;20033;-75
2023/02/24 02:56:35;;;;;;;16.60;7.35;;;6.20;84.00;;;;;;5053034;28;20021;-76
2023/02/24 02:59:02;;;;;;;14.68;7.43;;;6.20;83.90;;;;;;5053374;28;20032;-75
2023/02/24 03:01:32;;;;;;;15.35;7.20;;;6.20;83.80;;;;;;5053325;28;20462;-78
2023/02/24 03:04:05;;;;;;;15.27;6.97;;;6.30;83.80;;;;;;5053352;28;20489;-77
2023/02/24 03:06:40;;;;;;;16.95;7.78;;;6.20;83.70;;;;;;5053433;28;20031;-76
2023/02/24 03:09:14;;;;;;;13.32;6.72;;;6.30;83.90;;;;;;5052958;28;20074;-75
2023/02/24 03:11:41;;;;;;;13.80;7.32;;;6.30;83.60;;;;;;5053235;28;20107;-75
2023/02/24 03:14:11;;;;;;;14.40;7.22;;;6.30;83.70;;;;;;5035345;28;20036;-78
2023/02/24 03:16:40;;;;;;;18.10;7.45;;;6.30;83.60;;;;;;5053242;28;20457;-74
2023/02/24 03:19:08;;;;;;;13.88;7.13;;;6.30;84.20;;;;;;5053154;28;20037;-75
2023/02/24 03:21:44;;;;;;;11.35;6.95;;;6.30;83.40;;;;;;5053033;28;20036;-75
2023/02/24 03:24:10;;;;;;;16.45;7.32;;;6.30;83.60;;;;;;5053057;28;20021;-75
2023/02/24 03:26:54;;;;;;;14.10;6.85;;;6.30;83.60;;;;;;5052916;28;20033;-75
2023/02/24 03:29:29;;;;;;;13.98;6.47;;;6.30;83.60;;;;;;5053009;28;20494;-75
2023/02/24 03:32:03;;;;;;;11.27;5.35;;;6.30;83.70;;;;;;5053077;28;20032;-75
2023/02/24 03:34:54;;;;;;;12.27;5.93;;;6.30;83.70;;;;;;5052827;28;20041;-74
2023/02/24 03:37:26;;;;;;;21.80;8.38;;;6.30;83.40;;;;;;5052849;28;20036;-75
2023/02/24 03:39:54;;;;;;;15.95;7.82;;;6.10;83.90;;;;;;5052884;28;20020;-75
2023/02/24 03:42:21;;;;;;;16.15;6.93;;;5.90;84.50;;;;;;5052826;28;20021;-76
2023/02/24 03:44:47;;;;;;;14.57;7.22;;;5.90;84.70;;;;;;5052837;28;20028;-76
2023/02/24 03:47:19;;;;;;;13.88;7.20;;;5.90;84.80;;;;;;5052770;28;20067;-77
2023/02/24 03:49:45;;;;;;;18.23;7.85;;;5.90;84.90;;;;;;5034673;28;20028;-75
2023/02/24 03:52:23;;;;;;;14.68;7.20;;;5.80;84.70;;;;;;5052729;28;20037;-75
2023/02/24 03:55:05;;;;;;;14.23;7.07;;;5.90;84.80;;;;;;5052732;28;20378;-74
2023/02/24 03:57:54;;;;;;;17.00;7.00;;;5.90;84.70;;;;;;5052040;28;20040;-75
2023/02/24 04:00:33;;;;;;;12.23;6.88;;;5.90;84.60;;;;;;5051792;28;20179;-75
2023/02/24 04:03:12;;;;;;;15.32;6.60;;;5.90;84.50;;;;;;5051445;28;20025;-75
2023/02/24 04:05:46;;;;;;;13.95;7.10;;;5.90;84.40;;;;;;5052553;28;20086;-75
2023/02/24 04:08:12;;;;;;;12.75;7.10;;;5.90;85.10;;;;;;5052672;28;20032;-75
2023/02/24 04:10:52;;;;;;;16.25;7.85;;;5.90;84.30;;;;;;5052622;28;20025;-74
2023/02/24 04:13:36;;;;;;;17.45;8.02;;;5.90;84.10;;;;;;5052657;28;20112;-75
2023/02/24 04:16:28;;;;;;;17.35;8.05;;;5.80;84.10;;;;;;5052599;28;20017;-75
2023/02/24 04:19:02;;;;;;;14.63;8.13;;;5.80;84.10;;;;;;5051862;28;20049;-73
2023/02/24 04:21:30;;;;;;;17.83;9.38;;;5.70;84.30;;;;;;5053181;28;20021;-73
2023/02/24 04:23:59;;;;;;;21.23;10.32;;;5.70;84.60;;;;;;5056380;28;20028;-73
2023/02/24 04:26:27;;;;;;;15.48;7.32;;;5.70;84.80;;;;;;5056199;28;20028;-73
2023/02/24 04:28:54;;;;;;;14.98;6.97;;;5.70;84.70;;;;;;5056164;28;20025;-74
2023/02/24 04:31:23;;;;;;;12.18;7.15;;;5.80;84.60;;;;;;5056153;28;20025;-74
2023/02/24 04:33:49;;;;;;;16.25;7.15;;;5.80;84.30;;;;;;5056012;28;20056;-74
2023/02/24 04:36:19;;;;;;;19.83;7.20;;;5.80;84.10;;;;;;5055857;28;20055;-74
2023/02/24 04:38:45;;;;;;;10.48;6.75;;;5.70;84.60;;;;;;5055941;28;20044;-73
2023/02/24 04:41:19;;;;;;;12.38;7.00;;;5.60;84.40;;;;;;5055846;28;20381;-73
2023/02/24 04:43:49;;;;;;;11.13;5.95;;;5.60;83.70;;;;;;5055914;28;20033;-76
2023/02/24 04:46:16;;;;;;;17.73;7.28;;;5.70;83.80;;;;;;5055786;28;20037;-74
2023/02/24 04:48:42;;;;;;;9.55;5.85;;;5.60;83.50;;;;;;5055570;28;20029;-76
2023/02/24 04:51:07;;;;;;;12.13;6.68;;;5.60;83.60;;;;;;5055610;28;20025;-73
2023/02/24 04:53:33;;;;;;;16.05;7.53;;;5.60;83.70;;;;;;5055402;28;20075;-74
2023/02/24 04:56:07;;;;;;;15.55;8.48;;;5.50;83.80;;;;;;5037600;28;20577;-74
2023/02/24 04:58:33;;;;;;;17.13;8.88;;;5.50;83.80;;;;;;5055404;28;20371;-73
2023/02/24 05:00:58;;;;;;;14.55;8.73;;;5.50;83.70;;;;;;5055450;28;20024;-75
2023/02/24 05:03:28;;;;;;;20.17;9.45;;;5.40;83.50;;;;;;5055540;28;20104;-74
2023/02/24 05:05:58;;;;;;;17.13;9.07;;;5.30;83.30;;;;;;5055479;28;20021;-75
2023/02/24 05:08:26;;;;;;;20.38;9.68;;;5.30;83.60;;;;;;5055245;28;20025;-74
2023/02/24 05:10:52;;;;;;;16.38;8.23;;;5.30;83.90;;;;;;5055295;28;20021;-73
2023/02/24 05:13:24;;;;;;;15.85;8.70;;;5.30;84.10;;;;;;5055178;28;20534;-73
2023/02/24 05:15:50;;;;;;;33.40;11.88;;;5.30;84.10;;;;;;5055401;28;20040;-75
2023/02/24 05:18:16;;;;;;;20.10;9.10;;;5.30;84.60;;;;;;5055222;28;20033;-74
2023/02/24 05:23:33;;;;;;;24.13;10.40;;;5.20;85.30;;;;;;5055470;28;20040;-74
2023/02/24 05:26:01;;;;;;;24.75;11.20;;;5.30;85.90;;;;;;5054961;28;20104;-74
2023/02/24 05:28:30;;;;;;;31.27;11.13;;;5.40;86.00;;;;;;5054800;28;20056;-73
2023/02/24 05:31:07;;;;;;;23.98;10.57;;;5.40;86.00;;;;;;5037039;28;20052;-74
2023/02/24 05:33:35;;;;;;;25.05;11.80;;;5.50;86.00;;;;;;5054381;28;20025;-73
2023/02/24 05:36:05;;;;;;;22.70;10.48;;;5.50;85.70;;;;;;5054912;28;20025;-74
2023/02/24 05:38:34;;;;;;;25.05;11.23;;;5.50;85.50;;;;;;5054830;28;20029;-75
2023/02/24 05:41:34;;;;;;;17.08;9.82;;;5.50;85.40;;;;;;5055021;28;20028;-74
2023/02/24 05:44:03;;;;;;;19.23;10.30;;;5.60;85.30;;;;;;5036906;28;20025;-74
2023/02/24 05:46:31;;;;;;;23.00;11.38;;;5.60;85.20;;;;;;5054712;28;20124;-74
2023/02/24 05:49:07;;;;;;;22.48;11.27;;;5.60;84.90;;;;;;5036796;28;20071;-73
2023/02/24 05:51:34;;;;;;;25.75;12.38;;;5.70;84.80;;;;;;5054688;28;20114;-73
2023/02/24 05:54:11;;;;;;;28.85;12.40;;;5.60;84.80;;;;;;5054527;28;20021;-73
2023/02/24 05:56:42;;;;;;;23.98;11.57;;;5.50;85.10;;;;;;5054518;28;20105;-73
2023/02/24 05:59:10;;;;;;;22.17;11.85;;;5.50;85.00;;;;;;5054732;28;20039;-74
2023/02/24 06:01:40;;;;;;;24.58;13.27;;;5.60;85.00;;;;;;5054511;28;20094;-74
2023/02/24 06:04:07;;;;;;;24.10;10.93;;;5.60;85.80;;;;;;5053885;28;20021;-73
2023/02/24 06:06:37;;;;;;;20.40;9.65;;;5.60;84.90;;;;;;5054393;28;20064;-72
2023/02/24 06:09:09;;;;;;;20.65;8.80;;;5.60;84.40;;;;;;5054313;28;20017;-73
2023/02/24 06:11:40;;;;;;;18.67;8.80;;;5.60;83.90;;;;;;5054142;28;20025;-74
2023/02/24 06:14:06;;;;;;;19.52;8.75;;;5.60;83.90;;;;;;5054121;28;20425;-73
2023/02/24 06:16:33;;;;;;;17.17;8.13;;;5.60;83.80;;;;;;5053928;28;20021;-73
2023/02/24 06:18:59;;;;;;;17.65;8.30;;;5.60;83.70;;;;;;5053877;28;20396;-73
2023/02/24 06:21:28;;;;;;;19.00;8.93;;;5.60;83.70;;;;;;5053983;28;20070;-73
2023/02/24 06:23:57;;;;;;;20.42;10.80;;;5.70;84.00;;;;;;5036015;28;20644;-73
2023/02/24 06:26:32;;;;;;;22.83;12.23;;;5.70;83.80;;;;;;5054097;28;20036;-73
2023/02/24 06:28:58;;;;;;;28.38;12.98;;;5.70;83.90;;;;;;5053971;28;20021;-73
2023/02/24 06:31:24;;;;;;;22.52;11.50;;;5.60;83.80;;;;;;5053736;28;20100;-72
2023/02/24 06:33:52;;;;;;;23.50;12.85;;;5.60;84.10;;;;;;5053683;28;20174;-73
2023/02/24 06:36:18;;;;;;;26.73;13.35;;;5.60;83.90;;;;;;5054007;28;20053;-72
2023/02/24 06:38:45;;;;;;;25.65;12.68;;;5.60;84.10;;;;;;5053763;28;20033;-73
2023/02/24 06:41:11;;;;;;;21.60;11.52;;;5.50;84.50;;;;;;5053413;28;20529;-72
2023/02/24 06:43:42;;;;;;;24.20;11.10;;;5.50;84.70;;;;;;5052961;28;20029;-72
2023/02/24 06:46:09;;;;;;;24.77;11.05;;;5.50;84.60;;;;;;5053167;28;20100;-72
2023/02/24 06:48:36;;;;;;;25.38;12.30;;;5.50;84.40;;;;;;5053609;28;20347;-73
2023/02/24 06:51:09;;;;;;;25.42;11.85;;;5.50;84.40;;;;;;5054288;28;20052;-73
2023/02/24 06:53:41;;;;;;;24.48;12.80;;;5.50;84.50;;;;;;5053987;28;20032;-73
2023/02/24 06:56:13;;;;;;;23.00;12.77;;;5.50;85.00;;;;;;5053608;28;20021;-73
2023/02/24 06:58:43;;;;;;;30.05;13.45;;;5.60;84.90;;;;;;5053514;28;20056;-73
2023/02/24 07:01:14;;;;;;;22.33;11.65;;;5.70;85.00;;;;;;5053890;28;20423;-73
2023/02/24 07:03:45;;;;;;;32.08;13.95;;;5.70;84.90;;;;;;5053824;28;20541;-73
2023/02/24 07:06:22;;;;;;;40.10;15.15;;;5.80;84.90;;;;;;5035707;28;20032;-73
2023/02/24 07:08:50;;;;;;;40.55;15.20;;;5.80;84.90;;;;;;5053264;28;20021;-73
2023/02/24 07:11:17;;;;;;;33.22;13.60;;;5.90;85.00;;;;;;5053175;28;20132;-74
2023/02/24 07:13:46;;;;;;;33.30;13.35;;;5.90;85.00;;;;;;5058936;28;20469;-74
2023/02/24 07:16:14;;;;;;;42.15;13.95;;;6.00;85.00;;;;;;5053201;28;20378;-74
2023/02/24 07:18:41;;;;;;;34.00;12.93;;;6.10;85.00;;;;;;5052963;28;20025;-74
2023/02/24 07:21:10;;;;;;;30.15;13.40;;;6.10;84.90;;;;;;5053048;28;20099;-75
2023/02/24 07:23:40;;;;;;;26.90;13.73;;;6.20;84.70;;;;;;5052477;28;20485;-74
2023/02/24 07:26:09;;;;;;;25.73;12.32;;;6.20;84.60;;;;;;5052722;28;20115;-74
2023/02/24 07:28:38;;;;;;;30.80;14.35;;;6.30;84.50;;;;;;5052967;28;20096;-74
2023/02/24 07:31:07;;;;;;;29.77;13.80;;;6.30;84.90;;;;;;5052672;28;20111;-75
2023/02/24 07:33:36;;;;;;;32.20;14.30;;;6.30;83.80;;;;;;5052596;28;20037;-74
2023/02/24 07:36:09;;;;;;;25.30;13.80;;;6.40;83.70;;;;;;5052705;28;20029;-73
2023/02/24 07:38:36;;;;;;;27.17;13.63;;;6.40;83.60;;;;;;5052412;28;20047;-73
2023/02/24 07:41:05;;;;;;;36.17;14.88;;;6.40;84.50;;;;;;5052297;28;20025;-74
2023/02/24 07:43:32;;;;;;;32.65;13.23;;;6.40;83.80;;;;;;5052007;28;20090;-74
2023/02/24 07:46:07;;;;;;;36.13;14.48;;;6.50;83.90;;;;;;5052487;28;20424;-75
2023/02/24 07:48:35;;;;;;;;;;;6.60;83.90;;;;;;5052833;28;20108;-75
2023/02/24 07:51:04;;;;;;;36.35;15.32;;;6.60;83.60;;;;;;5052661;28;20337;-74
2023/02/24 07:53:30;;;;;;;29.95;15.10;;;6.50;83.70;;;;;;5052385;28;20021;-74
2023/02/24 07:55:55;;;;;;;28.13;14.50;;;6.60;83.70;;;;;;5054005;28;20087;-74
2023/02/24 07:58:22;;;;;;;27.65;14.35;;;6.70;83.90;;;;;;5038595;28;20497;-74
2023/02/24 08:01:07;;;;;;;33.85;13.85;;;6.80;84.00;;;;;;5038515;28;20473;-75
2023/02/24 08:03:40;;;;;;;23.40;13.23;;;7.00;83.70;;;;;;5056310;28;20028;-74
2023/02/24 08:06:14;;;;;;;35.45;15.82;;;7.10;83.50;;;;;;5056243;28;20028;-74
2023/02/24 08:09:16;;;;;;;38.88;16.73;;;7.10;83.40;;;;;;5056292;28;20075;-76
2023/02/24 08:11:44;;;;;;;29.05;11.95;;;7.10;83.50;;;;;;5038223;28;20381;-74
2023/02/24 08:14:14;;;;;;;31.15;14.00;;;7.40;92.20;;;;;;5038250;28;20021;-73
2023/02/24 08:16:41;;;;;;;29.35;14.25;;;7.90;94.50;;;;;;5056290;28;20512;-73
2023/02/24 08:19:13;;;;;;;22.00;11.40;;;8.20;90.80;;;;;;5056086;28;20100;-73
2023/02/24 08:21:46;;;;;;;24.48;12.13;;;8.50;87.10;;;;;;5056353;28;20276;-73
2023/02/24 08:24:23;;;;;;;25.98;12.40;;;9.10;83.40;;;;;;5056255;28;20033;-75
2023/02/24 08:27:04;;;;;;;30.35;13.45;;;9.60;79.20;;;;;;5038320;28;20075;-74
2023/02/24 08:29:39;;;;;;;30.25;13.80;;;10.20;76.90;;;;;;5037690;28;20137;-73
2023/02/24 08:32:08;;;;;;;30.88;14.35;;;10.70;73.90;;;;;;5037901;28;20032;-74
2023/02/24 08:34:34;;;;;;;29.80;14.45;;;11.10;71.30;;;;;;5037717;28;20052;-74
2023/02/24 08:37:00;;;;;;;28.63;15.40;;;11.40;69.80;;;;;;5055745;28;20028;-72
2023/02/24 08:39:29;;;;;;;25.83;14.07;;;11.70;69.50;;;;;;5055159;28;20033;-75
2023/02/24 08:41:57;;;;;;;24.23;11.35;;;11.90;68.00;;;;;;5037872;28;20032;-75
2023/02/24 08:44:25;;;;;;;24.02;12.70;;;12.10;67.70;;;;;;5055596;28;20028;-74
2023/02/24 08:46:52;;;;;;;26.88;13.38;;;12.40;66.70;;;;;;5038262;28;20033;-74
2023/02/24 08:49:19;;;;;;;21.50;11.77;;;12.60;65.50;;;;;;5055576;28;20017;-73
2023/02/24 08:51:47;;;;;;;23.42;12.15;;;12.90;65.30;;;;;;5055301;28;20033;-75
2023/02/24 08:54:16;;;;;;;26.13;13.30;;;12.80;64.10;;;;;;5055344;28;20462;-75
2023/02/24 08:56:54;;;;;;;22.58;12.43;;;12.50;64.80;;;;;;5055317;28;20037;-75
2023/02/24 08:59:36;;;;;;;25.38;11.32;;;12.20;66.00;;;;;;5054880;28;20021;-76
2023/02/24 09:05:09;;;;;;;22.17;12.38;;;11.90;67.70;;;;;;5046149;28;20501;-75
2023/02/24 09:07:37;;;;;;;21.15;11.85;;;11.90;67.50;;;;;;5053627;28;20017;-76
2023/02/24 09:10:11;;;;;;;24.52;12.40;;;11.80;68.40;;;;;;5054344;28;20481;-76
2023/02/24 09:12:40;;;;;;;22.35;11.38;;;11.70;69.40;;;;;;5054267;28;20033;-76
2023/02/24 09:15:08;;;;;;;22.63;11.63;;;11.80;69.70;;;;;;5054863;28;20473;-77
2023/02/24 09:17:48;;;;;;;26.85;11.35;;;11.70;69.90;;;;;;5036864;28;20051;-76
2023/02/24 09:23:06;;;;;;;25.63;10.15;;;11.40;70.50;;;;;;5055237;28;20029;-75
2023/02/24 09:28:47;;;;;;;23.15;10.95;;;10.90;70.50;;;;;;5041650;28;20044;-74
2023/02/24 09:31:15;;;;;;;26.75;11.90;;;10.60;71.50;;;;;;5054837;28;20028;-75
2023/02/24 09:33:49;;;;;;;19.70;10.23;;;10.40;72.50;;;;;;5054528;28;20037;-75
2023/02/24 09:36:19;;;;;;;26.88;12.48;;;10.30;73.30;;;;;;5054981;28;20021;-75
2023/02/24 09:42:27;;;;;;;26.73;11.38;;;10.00;76.20;;;;;;5054783;28;20025;-76
2023/02/24 09:44:44;;;;;;;21.15;10.45;;;10.00;76.00;;;;;;5054535;28;20029;-76
2023/02/24 09:47:38;;;;;;;24.58;10.85;;;9.80;77.30;;;;;;5036227;28;20453;-75
2023/02/24 09:50:19;;;;;;;25.20;10.63;;;9.70;77.70;;;;;;5051488;28;20071;-76
2023/02/24 09:52:53;;;;;;;17.55;9.35;;;9.60;78.80;;;;;;5054311;28;20037;-76
2023/02/24 09:55:24;;;;;;;20.90;9.60;;;9.60;78.60;;;;;;5054362;28;20099;-76
2023/02/24 09:58:22;;;;;;;23.63;9.82;;;9.60;79.20;;;;;;5051827;28;20711;-75
2023/02/24 10:00:55;;;;;;;20.45;9.98;;;9.60;78.60;;;;;;5050244;28;20040;-74
2023/02/24 10:03:41;;;;;;;21.95;9.90;;;9.50;77.70;;;;;;5050544;28;20059;-74
2023/02/24 10:06:57;;;;;;;17.42;8.77;;;9.30;78.60;;;;;;5051309;28;20016;-75
2023/02/24 10:09:33;;;;;;;19.67;9.52;;;9.20;79.30;;;;;;5028365;28;20040;-75
2023/02/24 10:12:17;;;;;;;18.05;9.57;;;9.20;79.80;;;;;;5049760;28;20044;-76
2023/02/24 10:15:17;;;;;;;16.02;9.10;;;9.20;79.70;;;;;;5032474;28;20378;-75
2023/02/24 10:17:46;;;;;;;24.02;11.68;;;9.10;79.80;;;;;;5049512;28;20132;-75
2023/02/24 10:20:38;;;;;;;26.80;10.93;;;9.10;80.20;;;;;;5050667;28;20025;-74
2023/02/24 10:23:31;;;;;;;21.40;10.05;;;9.10;80.20;;;;;;5049998;28;20104;-74
2023/02/24 10:26:20;;;;;;;22.55;10.75;;;9.10;80.30;;;;;;5051924;28;20020;-73
2023/02/24 10:28:57;;;;;;;18.48;9.68;;;9.10;80.40;;;;;;5050476;28;20021;-75
2023/02/24 10:31:38;;;;;;;18.63;9.43;;;9.10;80.30;;;;;;5050382;28;20024;-74
2023/02/24 10:34:09;;;;;;;20.80;10.23;;;9.20;80.30;;;;;;5049710;28;20036;-75
2023/02/24 10:36:35;;;;;;;16.45;8.43;;;9.40;80.10;;;;;;5051798;28;20100;-74
2023/02/24 10:39:19;;;;;;;18.10;10.02;;;9.60;79.70;;;;;;5051616;28;20028;-74
2023/02/24 10:41:48;;;;;;;18.25;9.20;;;10.00;78.70;;;;;;5050448;28;20013;-74
2023/02/24 10:44:24;;;;;;;22.55;10.70;;;10.40;77.60;;;;;;5051201;28;20477;-75
2023/02/24 10:47:11;;;;;;;22.90;10.73;;;10.70;76.00;;;;;;5051616;28;20028;-75
2023/02/24 10:49:55;;;;;;;19.83;11.15;;;11.00;74.30;;;;;;5048908;28;20107;-75
2023/02/24 10:52:49;;;;;;;16.38;9.68;;;11.10;72.80;;;;;;5049333;28;20021;-75
2023/02/24 10:55:52;;;;;;;18.58;10.40;;;11.30;72.80;;;;;;5051242;28;20020;-74
2023/02/24 10:58:43;;;;;;;19.10;9.50;;;11.80;71.80;;;;;;5031225;28;20381;-74
2023/02/24 11:01:39;;;;;;;24.95;9.38;;;12.10;70.00;;;;;;5053021;28;20147;-75
2023/02/24 11:07:10;;;;;;;33.92;14.82;;;12.30;68.30;;;;;;5049661;28;20359;-75
2023/02/24 11:09:51;;;;;;;30.35;16.67;;;12.40;68.20;;;;;;5049491;28;20013;-75
2023/02/24 11:18:05;;;;;;;30.90;16.75;;;12.30;66.80;;;;;;5050279;28;20039;-74
2023/02/24 11:20:43;;;;;;;27.33;11.35;;;12.30;67.50;;;;;;5048552;28;20021;-76
2023/02/24 11:23:14;;;;;;;26.02;11.43;;;12.50;67.10;;;;;;5051599;28;20035;-73
2023/02/24 11:25:44;;;;;;;22.85;10.43;;;12.70;67.90;;;;;;5050897;28;20021;-76
2023/02/24 11:28:35;;;;;;;21.52;11.05;;;12.90;66.40;;;;;;5048465;28;20086;-76
2023/02/24 11:31:22;;;;;;;21.73;9.82;;;12.90;64.70;;;;;;5049698;28;20020;-76
2023/02/24 11:33:58;;;;;;;20.73;9.75;;;12.80;64.90;;;;;;5050571;28;20378;-75
2023/02/24 11:36:36;;;;;;;21.10;9.93;;;12.70;65.50;;;;;;5051016;28;20481;-75
2023/02/24 11:39:04;;;;;;;28.70;11.32;;;12.40;66.30;;;;;;5050348;28;20033;-75
2023/02/24 11:41:34;;;;;;;27.10;11.07;;;11.90;68.20;;;;;;5048101;28;20017;-75
2023/02/24 11:44:08;;;;;;;25.10;11.80;;;11.50;70.00;;;;;;5050988;28;20020;-75
2023/02/24 11:46:45;;;;;;;21.70;11.20;;;11.20;70.00;;;;;;5048537;28;20044;-74
2023/02/24 11:49:37;;;;;;;34.88;11.90;;;10.90;72.20;;;;;;5030479;28;20032;-76
2023/02/24 11:52:07;;;;;;;25.95;11.95;;;10.90;72.00;;;;;;5042219;28;20374;-75
2023/02/24 11:54:41;;;;;;;26.35;11.73;;;10.80;72.20;;;;;;5048167;28;20081;-74
2023/02/24 11:57:15;;;;;;;30.23;11.93;;;10.90;72.20;;;;;;5056355;28;20091;-78
2023/02/24 12:00:12;;;;;;;21.60;11.05;;;10.90;72.50;;;;;;5051076;28;20047;-75
2023/02/24 12:02:46;;;;;;;30.40;12.02;;;11.10;72.40;;;;;;5030241;28;20033;-75
2023/02/24 12:05:23;;;;;;;24.42;11.70;;;11.30;71.40;;;;;;5048988;28;20504;-75
2023/02/24 12:07:53;;;;;;;26.00;10.35;;;11.30;71.50;;;;;;5050560;28;20021;-77
2023/02/24 12:10:24;;;;;;;20.25;10.02;;;11.40;71.50;;;;;;5050410;28;20322;-76
2023/02/24 12:13:14;;;;;;;23.42;10.50;;;11.60;71.30;;;;;;5050800;28;20025;-74
2023/02/24 12:15:46;;;;;;;22.40;10.30;;;11.80;71.10;;;;;;5049278;28;20017;-75
2023/02/24 12:18:34;;;;;;;26.23;11.15;;;11.80;70.80;;;;;;5048134;28;20497;-75
2023/02/24 12:21:24;;;;;;;23.98;12.27;;;11.90;70.40;;;;;;5048784;28;20390;-76
2023/02/24 12:23:54;;;;;;;19.92;10.25;;;11.80;69.90;;;;;;5051117;28;20037;-75
2023/02/24 12:26:26;;;;;;;24.90;10.85;;;11.70;70.50;;;;;;5051915;28;20386;-76
2023/02/24 12:29:41;;;;;;;28.48;11.63;;;11.80;70.10;;;;;;5034148;28;20025;-75
2023/02/24 12:32:19;;;;;;;30.48;11.55;;;11.70;69.10;;;;;;5050977;28;20036;-77
2023/02/24 12:34:56;;;;;;;22.83;10.50;;;11.50;69.00;;;;;;5048708;28;20128;-74
2023/02/24 12:37:40;;;;;;;28.83;10.70;;;11.20;70.00;;;;;;5032800;28;20083;-75
2023/02/24 12:40:31;;;;;;;24.13;10.88;;;11.10;70.20;;;;;;5032956;28;20025;-75
2023/02/24 12:43:31;;;;;;;32.78;10.45;;;11.00;71.00;;;;;;5053765;28;20083;-77
2023/02/24 12:46:02;;;;;;;35.45;10.77;;;10.70;71.80;;;;;;5056599;28;20474;-75
2023/02/24 12:48:51;;;;;;;23.20;10.10;;;10.60;72.70;;;;;;5038535;28;20040;-77
2023/02/24 12:51:49;;;;;;;23.27;10.50;;;10.50;73.80;;;;;;5037829;28;20021;-75
2023/02/24 12:54:23;;;;;;;26.73;9.55;;;10.50;74.20;;;;;;5055041;28;20116;-75
2023/02/24 12:57:39;;;;;;;23.27;10.10;;;10.40;74.40;;;;;;5036907;28;20108;-75
2023/02/24 13:00:15;;;;;;;25.92;10.50;;;10.50;74.30;;;;;;5003740;28;20044;-77
2023/02/24 13:03:16;;;;;;;24.70;11.13;;;10.60;73.80;;;;;;5037546;28;20028;-76
2023/02/24 13:05:50;;;;;;;23.08;9.40;;;10.50;73.70;;;;;;5019716;28;20061;-75
2023/02/24 13:08:22;;;;;;;18.27;9.00;;;10.60;74.00;;;;;;5037609;28;20032;-76
2023/02/24 13:11:04;;;;;;;26.27;9.70;;;10.90;73.60;;;;;;5055305;28;20074;-75
2023/02/24 13:13:40;;;;;;;25.15;9.45;;;11.20;71.40;;;;;;5037052;28;20025;-76
2023/02/24 13:16:09;;;;;;;;;;;11.10;71.20;;;;;;5048643;28;20021;-77
2023/02/24 13:18:38;;;;;;;25.23;8.88;;;11.00;70.90;;;;;;5035580;28;19931;-76
2023/02/24 13:21:23;;;;;;;23.52;8.93;;;10.70;72.10;;;;;;5055669;28;20017;-76
2023/02/24 13:23:56;;;;;;;28.80;9.63;;;10.70;73.00;;;;;;5037243;28;20033;-77
2023/02/24 13:26:23;;;;;;;38.70;10.13;;;10.70;72.30;;;;;;5054575;28;20017;-77
2023/02/24 13:28:58;;;;;;;25.50;10.07;;;10.70;72.40;;;;;;5036255;28;20486;-75
2023/02/24 13:31:25;;;;;;;19.25;8.55;;;10.80;71.90;;;;;;5035673;28;20092;-74
2023/02/24 13:33:51;;;;;;;21.70;9.95;;;10.90;71.90;;;;;;5035323;28;20064;-76
2023/02/24 13:36:23;;;;;;;26.50;9.82;;;11.10;71.90;;;;;;5034694;28;20115;-76
2023/02/24 13:39:03;;;;;;;34.15;12.98;;;11.30;70.60;;;;;;5035511;28;20041;-76